createdAt,value
2022-12-25T00:01:17.800Z,98351.72
2022-12-25T00:04:21.341Z,98345.88
2022-12-25T00:07:26.515Z,98342.47
2022-12-25T00:10:29.814Z,98327.69
2022-12-25T00:13:34.477Z,98344.88
2022-12-25T00:16:38.220Z,98333.97
2022-12-25T00:19:41.730Z,98340.72
2022-12-25T00:22:48.607Z,98339.72
2022-12-25T00:25:54.920Z,98341.88
2022-12-25T00:28:59.882Z,98336.78
2022-12-25T00:32:03.414Z,98325.44
2022-12-25T00:35:10.463Z,98319.13
2022-12-25T00:38:15.147Z,98331.16
2022-12-25T00:41:42.002Z,98326.19
2022-12-25T00:44:48.549Z,98329.94
2022-12-25T00:47:52.018Z,98328.25
2022-12-25T00:50:56.645Z,98333.09
2022-12-25T00:54:01.279Z,98328.31
2022-12-25T00:57:05.048Z,98329.94
2022-12-25T01:00:09.681Z,98330.28
2022-12-25T01:03:13.231Z,98338.81
2022-12-25T01:06:16.544Z,98342.28
2022-12-25T01:09:38.677Z,98347.47
2022-12-25T01:12:43.733Z,98350.88
2022-12-25T01:15:48.285Z,98369.16
2022-12-25T01:18:51.575Z,98362.19
2022-12-25T01:21:55.325Z,98372.41
2022-12-25T01:24:59.993Z,98373.19
2022-12-25T01:28:06.202Z,98324.19
2022-12-25T01:31:11.642Z,98347.50
2022-12-25T01:34:15.111Z,98354.91
2022-12-25T01:37:18.657Z,98358.97
2022-12-25T01:40:23.822Z,98357.03
2022-12-25T01:43:29.372Z,98335.72
2022-12-25T01:46:36.764Z,98316.78
2022-12-25T01:49:41.946Z,98341.53
2022-12-25T01:52:46.104Z,98343.50
2022-12-25T01:55:52.221Z,98345.19
2022-12-25T01:58:56.574Z,98341.75
2022-12-25T02:02:03.741Z,98340.03
2022-12-25T02:05:13.190Z,98352.06
2022-12-25T02:08:19.516Z,98353.91
2022-12-25T02:11:38.215Z,98362.38
2022-12-25T02:14:41.642Z,98355.44
2022-12-25T02:17:53.095Z,98354.94
2022-12-25T02:21:40.205Z,98355.69
2022-12-25T02:24:59.499Z,98337.38
2022-12-25T02:28:11.743Z,98358.38
2022-12-25T02:31:19.549Z,98359.75
2022-12-25T02:34:48.256Z,98357.38
2022-12-25T02:38:17.966Z,98367.69
2022-12-25T02:41:45.831Z,98357.47
2022-12-25T02:45:28.446Z,98355.00
2022-12-25T02:49:02.788Z,98305.91
2022-12-25T02:52:28.091Z,98355.69
2022-12-25T02:55:54.229Z,98360.00
2022-12-25T02:59:18.216Z,98289.72
2022-12-25T03:02:42.582Z,98343.75
2022-12-25T03:06:04.012Z,98349.59
2022-12-25T03:09:27.106Z,98345.13
2022-12-25T03:12:40.538Z,98327.34
2022-12-25T03:16:13.246Z,98328.06
2022-12-25T03:19:35.028Z,98317.09
2022-12-25T03:22:56.509Z,98325.03
2022-12-25T03:26:17.058Z,98317.44
2022-12-25T03:29:34.203Z,98317.47
2022-12-25T03:32:40.945Z,98310.72
2022-12-25T03:35:49.594Z,98315.13
2022-12-25T03:39:17.807Z,98320.81
2022-12-25T03:42:43.966Z,98315.72
2022-12-25T03:46:10.707Z,98312.19
2022-12-25T03:49:38.278Z,98302.91
2022-12-25T03:53:04.168Z,98293.53
2022-12-25T03:56:26.196Z,98296.19
2022-12-25T03:59:47.386Z,98300.06
2022-12-25T04:03:08.178Z,98290.63
2022-12-25T04:06:28.959Z,98281.25
2022-12-25T04:09:50.756Z,98285.09
2022-12-25T04:13:12.241Z,98279.25
2022-12-25T04:16:33.113Z,98299.59
2022-12-25T04:19:54.613Z,98268.56
2022-12-25T04:23:15.511Z,98300.09
2022-12-25T04:26:37.384Z,98299.19
2022-12-25T04:29:58.408Z,98303.63
2022-12-25T04:34:55.362Z,98317.09
2022-12-25T04:38:20.876Z,98313.31
2022-12-25T04:41:44.552Z,98319.41
2022-12-25T04:45:10.852Z,98321.34
2022-12-25T04:48:14.115Z,98328.75
2022-12-25T04:51:20.637Z,98332.59
2022-12-25T04:54:26.133Z,98330.06
2022-12-25T04:57:29.479Z,98320.97
2022-12-25T05:00:35.687Z,98325.19
2022-12-25T05:03:40.341Z,98322.66
2022-12-25T05:06:45.032Z,98323.75
2022-12-25T05:09:48.295Z,98296.53
2022-12-25T05:12:51.850Z,98308.16
2022-12-25T05:15:57.321Z,98312.47
2022-12-25T05:19:00.751Z,98317.03
2022-12-25T05:22:08.799Z,98313.69
2022-12-25T05:25:12.482Z,98326.47
2022-12-25T05:28:15.850Z,98325.44
2022-12-25T05:31:19.729Z,98320.25
2022-12-25T05:34:23.502Z,98316.09
2022-12-25T05:37:28.399Z,98309.81
2022-12-25T05:40:31.702Z,98301.09
2022-12-25T05:43:35.124Z,98302.56
2022-12-25T05:46:38.353Z,98302.50
2022-12-25T05:49:41.846Z,98289.56
2022-12-25T05:52:46.433Z,98292.13
2022-12-25T05:55:49.744Z,98291.25
2022-12-25T05:58:53.148Z,98291.09
2022-12-25T06:01:56.577Z,98294.47
2022-12-25T06:04:59.910Z,98300.44
2022-12-25T06:08:04.497Z,98297.03
2022-12-25T06:11:09.279Z,98293.41
2022-12-25T06:14:14.905Z,98277.19
2022-12-25T06:17:18.109Z,98277.19
2022-12-25T06:20:21.452Z,98289.56
2022-12-25T06:23:26.943Z,98266.50
2022-12-25T06:26:30.365Z,98297.78
2022-12-25T06:29:33.569Z,98288.34
2022-12-25T06:32:37.352Z,98287.31
2022-12-25T06:35:42.374Z,98291.53
2022-12-25T06:38:48.241Z,98263.47
2022-12-25T06:41:51.809Z,98277.75
2022-12-25T06:44:55.693Z,98281.88
2022-12-25T06:47:58.917Z,98292.00
2022-12-25T06:51:07.085Z,98288.91
2022-12-25T06:54:11.870Z,98307.69
2022-12-25T06:57:15.061Z,98305.72
2022-12-25T07:00:19.691Z,98310.72
2022-12-25T07:03:23.841Z,98312.31
2022-12-25T07:06:27.392Z,98309.66
2022-12-25T07:09:34.184Z,98311.56
2022-12-25T07:12:38.375Z,98311.63
2022-12-25T07:15:41.596Z,98313.91
2022-12-25T07:18:48.971Z,98297.84
2022-12-25T07:21:57.667Z,98319.19
2022-12-25T07:25:03.512Z,98306.28
2022-12-25T07:28:06.751Z,98324.06
2022-12-25T07:31:12.908Z,98313.03
2022-12-25T07:34:18.020Z,98321.63
2022-12-25T07:37:22.323Z,98320.75
2022-12-25T07:40:29.446Z,98322.34
2022-12-25T07:43:32.783Z,98311.34
2022-12-25T07:46:36.273Z,98316.44
2022-12-25T07:49:42.623Z,98307.75
2022-12-25T07:52:46.953Z,98300.16
2022-12-25T07:55:57.657Z,98291.59
2022-12-25T07:59:00.894Z,98272.19
2022-12-25T08:02:04.718Z,98292.44
2022-12-25T08:05:09.325Z,98289.84
2022-12-25T08:08:15.327Z,98287.25
2022-12-25T08:11:20.503Z,98297.41
2022-12-25T08:14:23.805Z,98304.13
2022-12-25T08:17:27.016Z,98298.13
2022-12-25T08:20:30.287Z,98297.09
2022-12-25T08:23:35.342Z,98286.59
2022-12-25T08:26:39.887Z,98282.19
2022-12-25T08:29:44.998Z,98264.81
2022-12-25T08:32:48.800Z,98261.25
2022-12-25T08:35:52.007Z,98251.38
2022-12-25T08:39:02.448Z,98242.59
2022-12-25T08:42:08.165Z,98249.16
2022-12-25T08:45:12.528Z,98235.50
2022-12-25T08:48:16.004Z,98260.72
2022-12-25T08:51:21.471Z,98276.88
2022-12-25T08:54:26.809Z,98288.75
2022-12-25T08:57:31.454Z,98294.47
2022-12-25T09:00:34.727Z,98278.00
2022-12-25T09:03:38.179Z,98263.22
2022-12-25T09:07:04.014Z,98268.31
2022-12-25T09:10:27.373Z,98254.50
2022-12-25T09:13:51.930Z,98261.13
2022-12-25T09:17:15.004Z,98260.84
2022-12-25T09:20:38.211Z,98274.28
2022-12-25T09:23:41.975Z,98285.47
2022-12-25T09:26:45.246Z,98299.06
2022-12-25T09:30:11.605Z,98289.53
2022-12-25T09:33:34.792Z,98292.91
2022-12-25T09:36:57.842Z,98296.38
2022-12-25T09:40:46.560Z,98289.44
2022-12-25T09:43:54.115Z,98287.66
2022-12-25T09:47:02.489Z,98241.53
2022-12-25T09:50:12.624Z,98255.81
2022-12-25T09:53:20.512Z,98250.38
2022-12-25T09:56:26.548Z,98238.16
2022-12-25T09:59:30.489Z,98238.06
2022-12-25T10:02:59.630Z,98230.13
2022-12-25T10:06:12.588Z,98216.09
2022-12-25T10:09:29.774Z,98217.41
2022-12-25T10:12:49.953Z,98190.47
2022-12-25T10:16:00.526Z,98179.22
2022-12-25T10:19:24.604Z,98161.16
2022-12-25T10:22:33.117Z,98130.06
2022-12-25T10:25:39.860Z,98148.34
2022-12-25T10:28:46.389Z,98125.34
2022-12-25T10:34:42.194Z,98126.44
2022-12-25T10:37:50.198Z,98137.88
2022-12-25T10:41:00.589Z,98148.78
2022-12-25T10:44:15.113Z,98146.81
2022-12-25T10:47:25.451Z,98144.81
2022-12-25T10:50:30.194Z,98154.72
2022-12-25T10:53:56.747Z,98151.84
2022-12-25T10:57:24.974Z,98153.22
2022-12-25T11:00:54.004Z,98155.06
2022-12-25T11:03:57.319Z,98152.47
2022-12-25T11:07:10.352Z,98137.63
2022-12-25T11:10:22.502Z,98145.66
2022-12-25T11:13:30.637Z,98133.09
2022-12-25T11:16:37.820Z,98111.63
2022-12-25T11:19:41.384Z,98089.94
2022-12-25T11:22:47.977Z,98104.13
2022-12-25T11:25:59.154Z,98093.66
2022-12-25T11:29:04.761Z,98089.22
2022-12-25T11:32:17.348Z,98088.13
2022-12-25T11:35:21.287Z,98088.31
2022-12-25T11:38:28.276Z,98081.31
2022-12-25T11:41:34.904Z,98073.97
2022-12-25T11:44:44.819Z,98064.03
2022-12-25T11:47:53.032Z,98062.06
2022-12-25T11:51:00.755Z,98062.72
2022-12-25T11:54:17.128Z,98063.66
2022-12-25T11:57:21.665Z,98058.94
2022-12-25T12:00:34.549Z,98068.94
2022-12-25T12:03:41.073Z,98065.25
2022-12-25T12:06:52.074Z,98065.22
2022-12-25T12:10:10.562Z,98046.06
2022-12-25T12:13:28.643Z,98052.09
2022-12-25T12:16:32.858Z,98055.75
2022-12-25T12:19:36.192Z,98048.16
2022-12-25T12:22:39.573Z,98029.53
2022-12-25T12:25:46.081Z,98035.13
2022-12-25T12:28:52.371Z,98024.41
2022-12-25T12:32:00.999Z,98013.97
2022-12-25T12:35:14.947Z,97964.09
2022-12-25T12:38:40.888Z,97993.22
2022-12-25T12:42:14.475Z,97996.00
2022-12-25T12:45:39.367Z,97994.56
2022-12-25T12:49:10.653Z,97994.75
2022-12-25T12:52:36.078Z,97990.38
2022-12-25T12:55:39.305Z,97985.38
2022-12-25T12:58:48.461Z,97986.75
2022-12-25T13:02:03.716Z,97994.44
2022-12-25T13:05:20.368Z,98004.19
2022-12-25T13:08:36.430Z,97991.31
2022-12-25T13:11:42.666Z,97993.75
2022-12-25T13:14:49.738Z,97998.50
2022-12-25T13:18:15.063Z,97978.28
2022-12-25T13:21:38.248Z,97985.75
2022-12-25T13:25:03.160Z,97976.81
2022-12-25T13:28:28.314Z,97971.50
2022-12-25T13:31:52.945Z,97978.81
2022-12-25T13:34:59.629Z,97980.88
2022-12-25T13:38:03.941Z,97971.94
2022-12-25T13:41:26.076Z,97968.75
2022-12-25T13:44:37.256Z,97961.50
2022-12-25T13:47:49.955Z,97961.47
2022-12-25T13:50:58.513Z,97956.19
2022-12-25T13:54:05.858Z,97951.09
2022-12-25T13:57:13.936Z,97965.09
2022-12-25T14:00:21.472Z,97954.72
2022-12-25T14:03:40.555Z,97953.75
2022-12-25T14:06:43.920Z,97962.31
2022-12-25T14:09:49.163Z,97958.88
2022-12-25T14:12:54.570Z,97962.97
2022-12-25T14:15:58.897Z,97970.28
2022-12-25T14:19:04.617Z,97968.25
2022-12-25T14:22:12.452Z,97969.34
2022-12-25T14:25:17.283Z,97959.44
2022-12-25T14:28:24.710Z,97977.03
2022-12-25T14:31:30.545Z,97970.75
2022-12-25T14:34:35.652Z,97966.59
2022-12-25T14:37:41.261Z,97989.91
2022-12-25T14:40:45.661Z,97976.31
2022-12-25T14:43:54.061Z,97988.25
2022-12-25T14:47:05.441Z,97969.88
2022-12-25T14:50:27.144Z,97962.09
2022-12-25T14:53:37.060Z,97983.84
2022-12-25T14:56:41.190Z,97974.03
2022-12-25T14:59:44.840Z,97966.44
2022-12-25T15:02:52.502Z,97944.16
2022-12-25T15:06:02.550Z,97939.13
2022-12-25T15:09:14.247Z,97938.44
2022-12-25T15:12:17.600Z,97941.88
2022-12-25T15:15:21.011Z,97952.78
2022-12-25T15:18:25.899Z,97957.97
2022-12-25T15:21:32.838Z,97951.34
2022-12-25T15:24:38.100Z,97957.50
2022-12-25T15:27:42.470Z,97906.84
2022-12-25T15:30:45.856Z,97945.59
2022-12-25T15:33:57.023Z,97947.69
2022-12-25T15:37:01.846Z,97940.63
2022-12-25T15:40:06.765Z,97964.53
2022-12-25T15:43:39.277Z,97963.78
2022-12-25T15:46:37.536Z,97944.53
2022-12-25T15:49:41.333Z,97960.91
2022-12-25T15:52:45.878Z,97962.78
2022-12-25T15:55:49.246Z,97970.59
2022-12-25T15:58:52.700Z,97980.94
2022-12-25T16:02:00.289Z,97976.72
2022-12-25T16:05:10.112Z,97969.47
2022-12-25T16:08:15.209Z,97965.41
2022-12-25T16:11:18.577Z,97957.75
2022-12-25T16:14:21.906Z,97967.41
2022-12-25T16:17:26.008Z,97954.28
2022-12-25T16:20:32.152Z,97972.91
2022-12-25T16:23:36.845Z,97975.34
2022-12-25T16:26:40.480Z,97872.94
2022-12-25T16:29:44.566Z,97942.47
2022-12-25T16:34:37.884Z,97953.34
2022-12-25T16:38:01.545Z,97939.97
2022-12-25T16:41:25.000Z,97928.78
2022-12-25T16:44:48.091Z,97932.66
2022-12-25T16:47:51.299Z,97937.88
2022-12-25T16:50:56.123Z,97948.63
2022-12-25T16:53:59.351Z,97941.81
2022-12-25T16:57:05.899Z,97943.69
2022-12-25T17:00:11.428Z,97950.09
2022-12-25T17:03:15.952Z,97943.25
2022-12-25T17:06:23.904Z,97959.06
2022-12-25T17:09:29.497Z,97965.81
2022-12-25T17:12:34.150Z,97962.19
2022-12-25T17:15:37.559Z,97947.59
2022-12-25T17:18:40.818Z,97955.09
2022-12-25T17:21:45.452Z,97938.78
2022-12-25T17:24:48.953Z,97933.38
2022-12-25T17:27:52.374Z,97909.28
2022-12-25T17:31:03.393Z,97905.94
2022-12-25T17:34:08.185Z,97924.72
2022-12-25T17:37:12.815Z,97929.25
2022-12-25T17:40:16.171Z,97927.50
2022-12-25T17:43:21.114Z,97929.41
2022-12-25T17:46:26.811Z,97926.94
2022-12-25T17:49:30.251Z,97916.41
2022-12-25T17:52:34.877Z,97927.03
2022-12-25T17:55:38.944Z,97940.63
2022-12-25T17:58:42.942Z,97935.59
2022-12-25T18:01:47.151Z,97944.44
2022-12-25T18:04:50.905Z,97935.72
2022-12-25T18:07:55.604Z,97927.19
2022-12-25T18:11:04.559Z,97921.41
2022-12-25T18:14:10.303Z,97920.56
2022-12-25T18:17:13.860Z,97903.25
2022-12-25T18:20:17.480Z,97905.81
2022-12-25T18:23:22.333Z,97901.19
2022-12-25T18:26:28.666Z,97905.50
2022-12-25T18:29:32.063Z,97932.38
2022-12-25T18:32:35.476Z,97928.69
2022-12-25T18:35:40.249Z,97921.06
2022-12-25T18:38:44.866Z,97930.63
2022-12-25T18:42:06.963Z,97933.28
2022-12-25T18:45:13.968Z,97930.09
2022-12-25T18:48:17.246Z,97905.44
2022-12-25T18:51:20.757Z,97936.16
2022-12-25T18:54:25.366Z,97942.59
2022-12-25T18:57:29.249Z,97943.34
2022-12-25T19:00:32.549Z,97954.38
2022-12-25T19:03:36.209Z,97964.72
2022-12-25T19:06:40.722Z,97948.84
2022-12-25T19:09:45.720Z,97948.50
2022-12-25T19:12:49.185Z,97930.59
2022-12-25T19:16:21.176Z,97918.22
2022-12-25T19:19:24.989Z,97911.31
2022-12-25T19:22:30.408Z,97918.78
2022-12-25T19:25:35.323Z,97916.44
2022-12-25T19:28:39.767Z,97916.53
2022-12-25T19:31:45.097Z,97899.47
2022-12-25T19:34:48.591Z,97905.16
2022-12-25T19:37:51.857Z,97902.84
2022-12-25T19:41:02.577Z,97898.31
2022-12-25T19:44:06.298Z,97892.25
2022-12-25T19:47:10.430Z,97840.25
2022-12-25T19:50:13.882Z,97881.50
2022-12-25T19:53:17.717Z,97918.06
2022-12-25T19:56:22.345Z,97924.41
2022-12-25T19:59:25.777Z,97928.81
2022-12-25T20:02:29.263Z,97946.25
2022-12-25T20:05:35.778Z,97933.66
2022-12-25T20:08:38.968Z,97934.75
2022-12-25T20:11:44.341Z,97947.16
2022-12-25T20:14:49.292Z,97958.34
2022-12-25T20:17:54.389Z,97967.38
2022-12-25T20:21:02.659Z,97973.50
2022-12-25T20:24:09.183Z,97980.47
2022-12-25T20:27:13.769Z,97982.28
2022-12-25T20:30:17.211Z,97968.28
2022-12-25T20:33:20.705Z,97992.53
2022-12-25T20:36:24.142Z,97996.94
2022-12-25T20:39:32.897Z,97990.09
2022-12-25T20:42:38.478Z,97986.69
2022-12-25T20:45:43.101Z,97995.38
2022-12-25T20:48:46.915Z,97992.34
2022-12-25T20:51:51.666Z,97992.91
2022-12-25T20:54:54.965Z,97990.97
2022-12-25T20:58:02.464Z,97989.88
2022-12-25T21:01:20.932Z,97985.00
2022-12-25T21:04:24.432Z,97966.44
2022-12-25T21:07:29.919Z,97986.78
2022-12-25T21:10:36.648Z,97997.69
2022-12-25T21:13:43.573Z,98003.19
2022-12-25T21:16:46.933Z,97984.56
2022-12-25T21:19:52.569Z,97993.56
2022-12-25T21:22:55.834Z,97971.03
2022-12-25T21:25:59.194Z,97991.22
2022-12-25T21:29:09.676Z,97921.63
2022-12-25T21:32:30.697Z,97988.91
2022-12-25T21:35:53.801Z,97994.28
2022-12-25T21:39:17.432Z,97966.84
2022-12-25T21:42:41.017Z,97983.19
2022-12-25T21:46:10.952Z,97974.88
2022-12-25T21:49:34.382Z,97983.91
2022-12-25T21:52:36.911Z,97988.94
2022-12-25T21:55:43.111Z,97981.03
2022-12-25T21:58:47.256Z,97966.97
2022-12-25T22:01:56.602Z,97980.97
2022-12-25T22:04:59.967Z,97974.38
2022-12-25T22:08:03.082Z,97982.13
2022-12-25T22:11:27.158Z,97987.56
2022-12-25T22:14:52.187Z,98010.59
2022-12-25T22:18:43.442Z,98018.72
2022-12-25T22:21:46.731Z,98025.59
2022-12-25T22:24:51.255Z,98024.81
2022-12-25T22:27:55.112Z,98033.66
2022-12-25T22:34:37.982Z,98024.66
2022-12-25T22:37:41.851Z,98015.88
2022-12-25T22:40:45.062Z,98011.16
2022-12-25T22:44:16.446Z,98017.94
2022-12-25T22:47:11.634Z,98028.38
2022-12-25T22:50:16.772Z,98035.97
2022-12-25T22:53:20.545Z,98047.63
2022-12-25T22:56:23.929Z,98044.31
2022-12-25T22:59:32.894Z,98043.53
2022-12-25T23:02:36.616Z,98020.84
2022-12-25T23:05:41.386Z,98049.97
2022-12-25T23:08:44.701Z,98056.25
2022-12-25T23:11:48.018Z,98040.81
2022-12-25T23:14:50.332Z,98034.22
2022-12-25T23:18:11.197Z,98039.78
2022-12-25T23:21:43.425Z,98039.56
2022-12-25T23:25:09.147Z,98038.75
2022-12-25T23:28:12.721Z,98042.16
2022-12-25T23:31:15.250Z,98028.97
2022-12-25T23:34:18.732Z,98033.13
2022-12-25T23:37:26.333Z,98030.44
2022-12-25T23:40:30.520Z,98036.81
2022-12-25T23:43:34.425Z,98023.94
2022-12-25T23:46:38.511Z,98051.63
2022-12-25T23:49:41.823Z,98050.97
2022-12-25T23:52:46.437Z,98051.19
2022-12-25T23:55:55.592Z,98044.34
2022-12-25T23:58:59.373Z,98034.56
